Schneifelwetter: Wetterstation Hallschlag, 537 m . NN
Wetterdaten: Freitag, 13.06.2008
Datum Zeit Temp. A. Temp. 2 Feuchte A. Luftdruck Regen Wind Richtung Richtung Sonnenschein Helligkeit T Regen Taupunkt Windchill
13.06.2008 00:01 7,0 C 6,7 C 92 % 1012 hPa 0,0 l/m 11,9 km/h (2 Bft) W45 280 0 min 0 lux 0,00 min 5,8 C 3,1 C
13.06.2008 00:16 7,2 C 6,8 C 92 % 1012 hPa 0,0 l/m 8,3 km/h (2 Bft) W22.5 280 0 min 0 lux 0,00 min 6,0 C 5,7 C
13.06.2008 00:31 7,2 C 6,9 C 92 % 1012 hPa 0,3 l/m 11,9 km/h (2 Bft) W45 275 0 min 0 lux 15,00 min 6,0 C 3,3 C
13.06.2008 00:46 7,2 C 6,7 C 91 % 1012 hPa 1,5 l/m 17,4 km/h (3 Bft) W-NW45 295 0 min 0 lux 15,00 min 5,8 C 0,7 C
13.06.2008 01:01 7,2 C 6,7 C 92 % 1012 hPa 0,0 l/m 15,5 km/h (3 Bft) W-NW45 295 0 min 0 lux 0,00 min 6,0 C 1,5 C
13.06.2008 01:16 7,1 C 6,5 C 92 % 1012 hPa 0,0 l/m 17,1 km/h (3 Bft) W-NW45 285 0 min 0 lux 0,00 min 5,9 C 0,7 C
13.06.2008 01:31 7,0 C 6,5 C 92 % 1012 hPa 0,0 l/m 18,1 km/h (3 Bft) W-NW45 290 0 min 0 lux 0,00 min 5,8 C 0,1 C
13.06.2008 01:46 7,0 C 6,4 C 92 % 1012 hPa 0,0 l/m 11,8 km/h (2 Bft) W45 280 0 min 0 lux 0,00 min 5,8 C 3,2 C
13.06.2008 02:01 6,9 C 6,5 C 92 % 1012 hPa 0,0 l/m 18,3 km/h (3 Bft) W45 270 0 min 0 lux 0,00 min 5,7 C -0,1 C
13.06.2008 02:16 6,9 C 6,4 C 92 % 1012 hPa 0,0 l/m 14,1 km/h (3 Bft) W45 280 0 min 0 lux 0,00 min 5,7 C 1,8 C
13.06.2008 02:31 6,8 C 6,3 C 92 % 1012 hPa 0,0 l/m 20,9 km/h (4 Bft) W22.5 275 0 min 0 lux 0,00 min 5,6 C -1,2 C
13.06.2008 02:47 6,7 C 6,3 C 92 % 1012 hPa 0,0 l/m 13,1 km/h (3 Bft) W 265 0 min 0 lux 0,00 min 5,5 C 2,1 C
13.06.2008 03:02 6,7 C 6,3 C 92 % 1012 hPa 0,0 l/m 12,6 km/h (3 Bft) W22.5 275 0 min 0 lux 0,00 min 5,5 C 2,4 C
13.06.2008 03:17 6,6 C 6,2 C 92 % 1012 hPa 0,0 l/m 11,8 km/h (2 Bft) W22.5 270 0 min 0 lux 0,00 min 5,4 C 2,7 C
13.06.2008 03:32 6,5 C 6,1 C 92 % 1012 hPa 0,0 l/m 11,7 km/h (2 Bft) W22.5 265 0 min 0 lux 0,00 min 5,3 C 2,7 C
13.06.2008 03:47 6,4 C 6,1 C 92 % 1012 hPa 0,0 l/m 7,9 km/h (2 Bft) W-NW45 300 0 min 0 lux 0,00 min 5,2 C 5,2 C
13.06.2008 04:02 6,4 C 6,0 C 92 % 1012 hPa 0,0 l/m 11,4 km/h (2 Bft) W22.5 270 0 min 0 lux 0,00 min 5,2 C 2,7 C
13.06.2008 04:17 6,3 C 5,9 C 92 % 1013 hPa 0,0 l/m 10,6 km/h (2 Bft) W22.5 265 0 min 0 lux 0,00 min 5,1 C 3,1 C
13.06.2008 04:32 6,3 C 5,9 C 93 % 1013 hPa 0,0 l/m 7,9 km/h (2 Bft) W-NW 285 0 min 0 lux 0,00 min 5,3 C 5,0 C
13.06.2008 04:47 6,3 C 5,8 C 93 % 1013 hPa 0,0 l/m 8,9 km/h (2 Bft) W-SW22.5 255 0 min 0 lux 0,00 min 5,3 C 4,3 C
13.06.2008 05:02 6,2 C 5,8 C 93 % 1013 hPa 0,0 l/m 11,5 km/h (2 Bft) W 260 0 min 55 lux 0,00 min 5,2 C 2,4 C
13.06.2008 05:17 5,9 C 5,1 C 92 % 1013 hPa 0,0 l/m 5,7 km/h (1 Bft) W-SW 255 0 min 176 lux 0,00 min 4,7 C 5,9 C
13.06.2008 05:32 5,6 C 5,0 C 92 % 1013 hPa 0,0 l/m 5,1 km/h (1 Bft) W-SW 255 0 min 344 lux 0,00 min 4,4 C 5,6 C
13.06.2008 05:47 5,7 C 5,3 C 93 % 1013 hPa 0,0 l/m 6,5 km/h (2 Bft) W22.5 265 0 min 682 lux 0,00 min 4,7 C 5,6 C
13.06.2008 06:02 6,1 C 5,6 C 94 % 1013 hPa 0,0 l/m 11,1 km/h (2 Bft) W22.5 270 0 min 2,82 klux 0,00 min 5,2 C 2,6 C
13.06.2008 06:17 6,2 C 5,7 C 93 % 1013 hPa 0,0 l/m 12,6 km/h (3 Bft) W-SW 255 0 min 5,90 klux 0,00 min 5,2 C 1,8 C
13.06.2008 06:32 6,4 C 5,8 C 93 % 1013 hPa 0,0 l/m 13,5 km/h (3 Bft) W22.5 265 0 min 5,50 klux 0,00 min 5,4 C 1,5 C
13.06.2008 06:47 6,6 C 6,1 C 93 % 1013 hPa 0,0 l/m 10,6 km/h (2 Bft) W 260 0 min 6,59 klux 0,00 min 5,6 C 3,4 C
13.06.2008 07:02 7,4 C 6,3 C 92 % 1013 hPa 0,0 l/m 11,5 km/h (2 Bft) W22.5 260 0 min 15,6 klux 0,00 min 6,2 C 3,8 C
13.06.2008 07:16 7,8 C 6,9 C 91 % 1014 hPa 0,0 l/m 9,9 km/h (2 Bft) W-SW 255 0 min 9,5 klux 0,00 min 6,4 C 5,2 C
13.06.2008 07:31 7,6 C 7,1 C 90 % 1013 hPa 0,3 l/m 10,2 km/h (2 Bft) W-SW 250 0 min 10,0 klux 15,00 min 6,1 C 4,8 C
13.06.2008 07:46 7,4 C 7,0 C 90 % 1014 hPa 0,0 l/m 11,2 km/h (2 Bft) W22.5 270 0 min 6,03 klux 0,00 min 5,9 C 4,0 C
13.06.2008 08:01 7,3 C 7,0 C 90 % 1014 hPa 0,3 l/m 7,6 km/h (2 Bft) W-SW22.5 255 0 min 9,8 klux 15,00 min 5,8 C 6,3 C
13.06.2008 08:16 7,5 C 7,1 C 91 % 1014 hPa 0,0 l/m 5,2 km/h (1 Bft) W 265 0 min 12,4 klux 0,00 min 6,1 C 7,5 C
13.06.2008 08:31 7,7 C 7,1 C 90 % 1014 hPa 0,0 l/m 6,9 km/h (2 Bft) W22.5 280 0 min 8,14 klux 0,00 min 6,2 C 7,3 C
13.06.2008 08:46 7,8 C 7,5 C 90 % 1014 hPa 0,0 l/m 8,7 km/h (2 Bft) W22.5 275 0 min 20,8 klux 0,00 min 6,3 C 6,0 C
13.06.2008 09:01 8,4 C 8,2 C 89 % 1014 hPa 0,0 l/m 16,0 km/h (3 Bft) W22.5 280 0 min 25,3 klux 0,00 min 6,7 C 2,8 C
13.06.2008 09:17 8,6 C 8,6 C 87 % 1014 hPa 0,0 l/m 17,6 km/h (3 Bft) W22.5 260 0 min 23,4 klux 0,00 min 6,6 C 2,4 C
13.06.2008 09:31 8,2 C 8,1 C 88 % 1014 hPa 0,0 l/m 15,8 km/h (3 Bft) W45 280 0 min 10,4 klux 0,00 min 6,3 C 2,6 C
13.06.2008 09:46 8,2 C 8,0 C 88 % 1014 hPa 0,0 l/m 17,0 km/h (3 Bft) W22.5 270 0 min 18,7 klux 0,00 min 6,3 C 2,1 C
13.06.2008 10:01 8,5 C 8,5 C 88 % 1014 hPa 0,0 l/m 11,4 km/h (2 Bft) W-SW22.5 250 0 min 24,5 klux 0,00 min 6,6 C 5,1 C
13.06.2008 10:16 9,0 C 8,7 C 85 % 1014 hPa 0,0 l/m 16,9 km/h (3 Bft) W22.5 270 0 min 22,5 klux 0,00 min 6,6 C 3,1 C
13.06.2008 10:31 9,7 C 9,1 C 85 % 1014 hPa 0,0 l/m 10,5 km/h (2 Bft) W22.5 270 15 min 82,0 klux 0,00 min 7,3 C 7,0 C
13.06.2008 10:46 11,0 C 10,6 C 80 % 1014 hPa 0,0 l/m 17,9 km/h (3 Bft) W45 270 0 min 49,3 klux 0,00 min 7,7 C 5,3 C
13.06.2008 11:02 10,4 C 10,4 C 78 % 1014 hPa 0,0 l/m 17,1 km/h (3 Bft) W-NW45 290 16 min 94,3 klux 0,00 min 6,7 C 4,8 C
13.06.2008 11:17 10,8 C 10,9 C 74 % 1014 hPa 0,0 l/m 27,8 km/h (4 Bft) W22.5 260 15 min 109 klux 0,00 min 6,4 C 2,3 C
13.06.2008 11:31 9,8 C 10,4 C 78 % 1015 hPa 0,0 l/m 25,3 km/h (4 Bft) W45 270 0 min 45,5 klux 0,00 min 6,1 C 1,5 C
13.06.2008 11:46 10,5 C 11,4 C 76 % 1015 hPa 0,0 l/m 21,3 km/h (4 Bft) W22.5 270 0 min 57,3 klux 0,00 min 6,5 C 3,5 C
13.06.2008 12:01 10,8 C 12,0 C 75 % 1015 hPa 0,0 l/m 21,6 km/h (4 Bft) W45 280 0 min 51,6 klux 0,00 min 6,5 C 3,8 C
13.06.2008 12:16 10,8 C 11,5 C 74 % 1015 hPa 0,0 l/m 18,2 km/h (3 Bft) W22.5 270 0 min 28,7 klux 0,00 min 6,4 C 4,9 C
13.06.2008 12:31 11,0 C 12,3 C 75 % 1015 hPa 0,0 l/m 23,2 km/h (4 Bft) W45 280 15 min 70,5 klux 0,00 min 6,7 C 3,7 C
13.06.2008 12:46 11,7 C 12,6 C 77 % 1015 hPa 0,0 l/m 20,3 km/h (4 Bft) W-SW22.5 250 0 min 54,3 klux 0,00 min 7,8 C 5,4 C
13.06.2008 13:02 12,5 C 13,4 C 75 % 1015 hPa 0,0 l/m 18,6 km/h (3 Bft) W-SW45 245 16 min 98,9 klux 0,00 min 8,2 C 6,9 C
13.06.2008 13:16 13,2 C 13,9 C 68 % 1014 hPa 0,0 l/m 17,3 km/h (3 Bft) W45 260 14 min 116 klux 0,00 min 7,4 C 8,2 C
13.06.2008 13:31 14,3 C 16,0 C 70 % 1014 hPa 0,0 l/m 21,2 km/h (4 Bft) W-SW45 250 15 min 122 klux 0,00 min 8,9 C 8,5 C
13.06.2008 13:46 14,2 C 16,2 C 64 % 1014 hPa 0,0 l/m 23,0 km/h (4 Bft) W45 270 15 min 110 klux 0,00 min 7,5 C 8,0 C
13.06.2008 14:01 14,4 C 17,0 C 63 % 1014 hPa 0,0 l/m 23,3 km/h (4 Bft) W45 260 15 min 111 klux 0,00 min 7,4 C 8,2 C
13.06.2008 14:16 14,2 C 18,4 C 56 % 1014 hPa 0,0 l/m 27,5 km/h (4 Bft) W22.5 270 15 min 127 klux 0,00 min 5,6 C 7,0 C
13.06.2008 14:32 15,0 C 19,2 C 57 % 1014 hPa 0,0 l/m 31,1 km/h (5 Bft) W67.5 275 16 min 133 klux 0,00 min 6,6 C 7,5 C
13.06.2008 14:47 12,2 C 15,2 C 63 % 1014 hPa 0,0 l/m 30,0 km/h (5 Bft) W-NW67.5 295 15 min 86,7 klux 0,00 min 5,4 C 3,7 C
13.06.2008 15:01 11,3 C 13,8 C 67 % 1014 hPa 0,0 l/m 20,1 km/h (4 Bft) W45 280 0 min 33,2 klux 0,00 min 5,4 C 4,9 C
13.06.2008 15:16 11,8 C 14,0 C 69 % 1014 hPa 0,0 l/m 26,2 km/h (4 Bft) W45 270 0 min 48,8 klux 0,00 min 6,3 C 4,0 C
13.06.2008 15:31 12,7 C 14,7 C 65 % 1014 hPa 0,0 l/m 25,5 km/h (4 Bft) W22.5 270 0 min 52,9 klux 0,00 min 6,3 C 5,4 C
13.06.2008 15:46 13,2 C 15,3 C 65 % 1014 hPa 0,0 l/m 19,6 km/h (3 Bft) W45 270 0 min 58,9 klux 0,00 min 6,8 C 7,5 C
13.06.2008 16:01 13,6 C 15,0 C 61 % 1014 hPa 0,0 l/m 26,7 km/h (4 Bft) W45 275 0 min 45,1 klux 0,00 min 6,2 C 6,4 C
13.06.2008 16:17 13,5 C 14,5 C 64 % 1014 hPa 0,0 l/m 19,9 km/h (4 Bft) W22.5 270 0 min 44,4 klux 0,00 min 6,8 C 7,8 C
13.06.2008 16:32 14,2 C 17,1 C 62 % 1014 hPa 0,0 l/m 21,6 km/h (4 Bft) W-SW22.5 255 15 min 88,2 klux 0,00 min 7,0 C 8,3 C
13.06.2008 16:46 13,6 C 15,0 C 62 % 1014 hPa 0,0 l/m 26,0 km/h (4 Bft) W45 260 0 min 49,5 klux 0,00 min 6,5 C 6,5 C
13.06.2008 17:01 12,8 C 13,5 C 63 % 1014 hPa 0,0 l/m 23,1 km/h (4 Bft) W22.5 260 0 min 16,3 klux 0,00 min 5,9 C 6,1 C
13.06.2008 17:16 12,1 C 12,4 C 65 % 1014 hPa 0,0 l/m 27,3 km/h (4 Bft) W22.5 265 0 min 12,5 klux 0,00 min 5,7 C 4,2 C
13.06.2008 17:31 10,5 C 10,8 C 69 % 1014 hPa 0,0 l/m 23,2 km/h (4 Bft) W45 270 0 min 11,4 klux 0,00 min 5,1 C 3,0 C
13.06.2008 17:46 10,2 C 10,5 C 71 % 1014 hPa 0,0 l/m 16,5 km/h (3 Bft) W22.5 265 0 min 15,9 klux 0,00 min 5,2 C 4,8 C
13.06.2008 18:01 10,4 C 10,6 C 73 % 1014 hPa 0,0 l/m 13,3 km/h (3 Bft) W45 270 0 min 16,0 klux 0,00 min 5,8 C 6,4 C
13.06.2008 18:17 10,5 C 10,7 C 73 % 1015 hPa 0,0 l/m 12,9 km/h (3 Bft) W45 265 0 min 19,6 klux 0,00 min 5,9 C 6,7 C
13.06.2008 18:31 11,1 C 11,7 C 72 % 1014 hPa 0,0 l/m 11,5 km/h (2 Bft) W-SW22.5 250 0 min 26,7 klux 0,00 min 6,2 C 8,0 C
13.06.2008 18:46 11,7 C 12,3 C 68 % 1014 hPa 0,0 l/m 27,2 km/h (4 Bft) W45 275 0 min 32,0 klux 0,00 min 6,0 C 3,6 C
13.06.2008 19:01 10,9 C 11,3 C 69 % 1014 hPa 0,0 l/m 20,5 km/h (4 Bft) W45 280 0 min 15,0 klux 0,00 min 5,4 C 4,3 C
13.06.2008 19:16 10,3 C 10,6 C 71 % 1015 hPa 0,0 l/m 15,3 km/h (3 Bft) W22.5 260 0 min 8,79 klux 0,00 min 5,3 C 5,4 C
13.06.2008 19:31 10,0 C 10,3 C 72 % 1015 hPa 0,0 l/m 15,3 km/h (3 Bft) W22.5 270 0 min 11,6 klux 0,00 min 5,2 C 5,0 C
13.06.2008 19:46 9,8 C 10,1 C 72 % 1015 hPa 0,0 l/m 14,5 km/h (3 Bft) W22.5 270 0 min 10,9 klux 0,00 min 5,0 C 5,1 C
13.06.2008 20:02 9,8 C 9,8 C 72 % 1015 hPa 0,0 l/m 13,2 km/h (3 Bft) W22.5 265 0 min 8,33 klux 0,00 min 5,0 C 5,7 C
13.06.2008 20:16 9,8 C 9,7 C 73 % 1015 hPa 0,0 l/m 9,6 km/h (2 Bft) W22.5 270 0 min 7,48 klux 0,00 min 5,2 C 7,6 C
13.06.2008 20:31 9,6 C 9,5 C 74 % 1015 hPa 0,0 l/m 11,0 km/h (2 Bft) W22.5 265 0 min 4,72 klux 0,00 min 5,2 C 6,6 C
13.06.2008 20:46 9,4 C 9,2 C 75 % 1015 hPa 0,0 l/m 10,8 km/h (2 Bft) W22.5 265 0 min 3,96 klux 0,00 min 5,2 C 6,5 C
13.06.2008 21:01 9,2 C 8,9 C 76 % 1015 hPa 0,0 l/m 9,0 km/h (2 Bft) W22.5 260 0 min 3,35 klux 0,00 min 5,2 C 7,3 C
13.06.2008 21:16 9,0 C 8,7 C 77 % 1015 hPa 0,0 l/m 9,7 km/h (2 Bft) W22.5 260 0 min 1,86 klux 0,00 min 5,2 C 6,7 C
13.06.2008 21:32 8,8 C 8,4 C 78 % 1015 hPa 0,0 l/m 9,2 km/h (2 Bft) W22.5 270 0 min 1,30 klux 0,00 min 5,2 C 6,8 C
13.06.2008 21:47 8,7 C 8,1 C 79 % 1015 hPa 0,0 l/m 10,1 km/h (2 Bft) W-SW22.5 255 0 min 869 lux 0,00 min 5,3 C 6,1 C
13.06.2008 22:01 8,3 C 7,8 C 80 % 1015 hPa 0,0 l/m 6,2 km/h (2 Bft) W-SW22.5 255 0 min 315 lux 0,00 min 5,1 C 8,3 C
13.06.2008 22:16 8,1 C 7,5 C 80 % 1015 hPa 0,0 l/m 5,1 km/h (1 Bft) W 260 0 min 84 lux 0,00 min 4,9 C 8,1 C
13.06.2008 22:31 7,8 C 7,0 C 80 % 1015 hPa 0,0 l/m 5,2 km/h (1 Bft) W 260 0 min 22 lux 0,00 min 4,6 C 7,8 C
13.06.2008 22:46 7,5 C 6,5 C 81 % 1015 hPa 0,0 l/m 0,0 km/h (0 Bft) W 260 0 min 4 lux 0,00 min 4,5 C 7,5 C
13.06.2008 23:01 7,0 C 5,9 C 81 % 1015 hPa 0,0 l/m 0,0 km/h (0 Bft) W 260 0 min 0 lux 0,00 min 4,0 C 7,0 C
13.06.2008 23:16 6,5 C 5,2 C 82 % 1015 hPa 0,0 l/m 0,0 km/h (0 Bft) W 260 0 min 0 lux 0,00 min 3,7 C 6,5 C
13.06.2008 23:32 6,0 C 4,3 C 83 % 1015 hPa 0,0 l/m 0,0 km/h (0 Bft) W 260 0 min 0 lux 0,00 min 3,3 C 6,0 C
13.06.2008 23:46 5,4 C 4,0 C 85 % 1015 hPa 0,0 l/m 0,0 km/h (0 Bft) W 260 0 min 0 lux 0,00 min 3,1 C 5,4 C
_ Min-Zeit 23:46 23:46 14:16 00:01 - 22:46 - - - - - 23:46 02:31
Minimum _ 5,4 C 4,0 C 56 % 1012 hPa - 0,0 km/h (0 Bft) - - - - - 3,1 C -1,2 C
_ Max-Zeit 14:32 14:32 06:02 11:31 00:46 14:32 - - 11:02 14:32 00:31 13:31 13:31
Maximum _ 15,0 C 19,2 C 94 % 1015 hPa 1,5 l/m 31,1 km/h
W (5 Bft)
- - 16 min 133 klux 15,00 min 8,9 C 8,5 C
Durchschnitt _ 9,1 C 9,3 C 81 % 1014 hPa #2,4 l/m 14,6 km/h (3 Bft) W - #3:17 h 25,4 klux #1:00 h 5,8 C 4,8 C